createdAt,value
2023-05-17T00:01:34.723Z,12.96
2023-05-17T00:03:14.518Z,12.96
2023-05-17T00:04:54.281Z,12.96
2023-05-17T00:06:34.019Z,12.96
2023-05-17T00:08:13.785Z,12.96
2023-05-17T00:09:53.564Z,12.96
2023-05-17T00:11:33.414Z,12.95
2023-05-17T00:13:13.121Z,12.95
2023-05-17T00:14:52.840Z,12.95
2023-05-17T00:16:32.617Z,12.95
2023-05-17T00:18:12.378Z,12.95
2023-05-17T00:19:52.213Z,12.95
2023-05-17T00:21:31.977Z,12.94
2023-05-17T00:23:11.658Z,12.94
2023-05-17T00:24:51.408Z,12.94
2023-05-17T00:26:31.241Z,12.93
2023-05-17T00:28:11.068Z,12.94
2023-05-17T00:29:50.735Z,12.94
2023-05-17T00:31:30.533Z,12.94
2023-05-17T00:33:10.375Z,12.94
2023-05-17T00:34:50.087Z,12.94
2023-05-17T00:36:29.923Z,12.94
2023-05-17T00:38:09.697Z,12.93
2023-05-17T00:39:49.308Z,12.94
2023-05-17T00:41:29.068Z,12.92
2023-05-17T00:43:08.853Z,12.94
2023-05-17T00:44:48.581Z,12.93
2023-05-17T00:46:28.399Z,12.93
2023-05-17T00:48:08.229Z,12.92
2023-05-17T00:49:47.900Z,12.92
2023-05-17T00:51:27.656Z,12.92
2023-05-17T00:53:07.410Z,12.92
2023-05-17T00:54:47.165Z,12.92
2023-05-17T00:56:27.043Z,12.92
2023-05-17T00:58:06.705Z,12.92
2023-05-17T00:59:46.574Z,12.92
2023-05-17T01:01:26.234Z,12.93
2023-05-17T01:03:06.049Z,12.92
2023-05-17T01:04:45.750Z,12.92
2023-05-17T01:06:25.549Z,12.92
2023-05-17T01:08:05.285Z,12.92
2023-05-17T01:09:45.066Z,12.92
2023-05-17T01:11:24.804Z,12.92
2023-05-17T01:13:04.592Z,12.9
2023-05-17T01:14:44.333Z,12.92
2023-05-17T01:16:24.123Z,12.91
2023-05-17T01:18:03.942Z,12.91
2023-05-17T01:19:43.635Z,12.91
2023-05-17T01:21:23.432Z,12.91
2023-05-17T01:23:03.230Z,12.91
2023-05-17T01:24:42.923Z,12.91
2023-05-17T01:26:22.725Z,12.9
2023-05-17T01:28:02.502Z,12.9
2023-05-17T01:29:42.208Z,12.9
2023-05-17T01:31:21.988Z,12.9
2023-05-17T01:33:01.800Z,12.9
2023-05-17T01:34:41.515Z,12.9
2023-05-17T01:36:21.265Z,12.9
2023-05-17T01:38:01.023Z,12.9
2023-05-17T01:39:40.808Z,12.9
2023-05-17T01:41:20.561Z,12.89
2023-05-17T01:43:00.317Z,12.89
2023-05-17T01:44:40.085Z,12.89
2023-05-17T01:46:19.836Z,12.89
2023-05-17T01:47:59.609Z,12.88
2023-05-17T01:49:39.383Z,12.88
2023-05-17T01:51:19.144Z,12.88
2023-05-17T01:52:58.911Z,12.88
2023-05-17T01:54:38.669Z,12.88
2023-05-17T01:56:18.449Z,12.89
2023-05-17T01:57:58.233Z,12.88
2023-05-17T01:59:37.957Z,12.88
2023-05-17T02:01:17.729Z,12.88
2023-05-17T02:02:57.537Z,12.88
2023-05-17T02:04:37.261Z,12.87
2023-05-17T02:06:17.007Z,12.87
2023-05-17T02:07:56.772Z,12.87
2023-05-17T02:09:36.555Z,12.86
2023-05-17T02:11:16.305Z,12.86
2023-05-17T02:12:56.112Z,12.85
2023-05-17T02:14:35.832Z,12.86
2023-05-17T02:16:15.597Z,12.86
2023-05-17T02:17:55.361Z,12.85
2023-05-17T02:19:35.130Z,12.85
2023-05-17T02:21:14.890Z,12.85
2023-05-17T02:22:54.656Z,12.85
2023-05-17T02:24:34.450Z,12.85
2023-05-17T02:26:14.196Z,12.85
2023-05-17T02:27:53.947Z,12.85
2023-05-17T02:29:33.711Z,12.85
2023-05-17T02:31:13.474Z,12.85
2023-05-17T02:32:53.251Z,12.85
2023-05-17T02:34:32.997Z,12.84
2023-05-17T02:36:12.764Z,12.84
2023-05-17T02:37:52.530Z,12.84
2023-05-17T02:39:32.311Z,12.84
2023-05-17T02:41:12.068Z,12.83
2023-05-17T02:42:51.819Z,12.83
2023-05-17T02:44:31.583Z,12.83
2023-05-17T02:46:11.350Z,12.83
2023-05-17T02:47:51.109Z,12.83
2023-05-17T02:49:30.955Z,12.83
2023-05-17T02:51:10.657Z,12.83
2023-05-17T02:52:50.436Z,12.82
2023-05-17T02:54:30.174Z,12.82
2023-05-17T02:56:09.993Z,12.82
2023-05-17T02:57:49.759Z,12.82
2023-05-17T02:59:29.471Z,12.83
2023-05-17T03:01:09.291Z,12.82
2023-05-17T03:02:48.986Z,12.81
2023-05-17T03:04:28.749Z,12.82
2023-05-17T03:06:08.512Z,12.82
2023-05-17T03:07:48.283Z,12.82
2023-05-17T03:09:28.063Z,12.82
2023-05-17T03:11:07.866Z,12.82
2023-05-17T03:12:47.591Z,12.82
2023-05-17T03:14:27.333Z,12.82
2023-05-17T03:16:07.100Z,12.82
2023-05-17T03:17:46.874Z,12.82
2023-05-17T03:19:26.625Z,12.82
2023-05-17T03:21:06.383Z,12.82
2023-05-17T03:22:46.209Z,12.82
2023-05-17T03:24:25.911Z,12.83
2023-05-17T03:26:05.843Z,12.83
2023-05-17T03:27:45.443Z,12.83
2023-05-17T03:29:25.198Z,12.83
2023-05-17T03:31:05.008Z,12.83
2023-05-17T03:32:44.727Z,12.85
2023-05-17T03:34:24.506Z,12.85
2023-05-17T03:36:04.307Z,12.88
2023-05-17T03:37:44.023Z,12.9
2023-05-17T03:39:23.776Z,12.91
2023-05-17T03:41:03.578Z,12.92
2023-05-17T03:42:43.365Z,12.91
2023-05-17T03:44:23.073Z,12.93
2023-05-17T03:46:02.878Z,12.94
2023-05-17T03:47:42.600Z,12.98
2023-05-17T03:49:22.381Z,12.96
2023-05-17T03:51:02.173Z,12.97
2023-05-17T03:52:41.964Z,12.99
2023-05-17T03:54:21.657Z,13.01
2023-05-17T03:56:01.447Z,13.03
2023-05-17T03:57:41.183Z,13.02
2023-05-17T03:59:20.967Z,13.03
2023-05-17T04:01:00.718Z,13.04
2023-05-17T04:02:40.489Z,13.06
2023-05-17T04:04:20.253Z,13.07
2023-05-17T04:06:00.001Z,13.1
2023-05-17T04:07:39.773Z,13.13
2023-05-17T04:09:19.564Z,13.2
2023-05-17T04:10:59.316Z,13.23
2023-05-17T04:12:39.105Z,13.27
2023-05-17T04:14:18.827Z,13.32
2023-05-17T04:15:58.614Z,13.32
2023-05-17T04:17:38.360Z,13.33
2023-05-17T04:19:18.139Z,13.35
2023-05-17T04:20:57.890Z,13.38
2023-05-17T04:22:37.662Z,13.45
2023-05-17T04:24:17.435Z,13.44
2023-05-17T04:25:57.172Z,13.51
2023-05-17T04:27:37.013Z,13.53
2023-05-17T04:29:16.724Z,13.61
2023-05-17T04:30:56.516Z,13.68
2023-05-17T04:32:36.234Z,13.71
2023-05-17T04:34:16.060Z,13.79
2023-05-17T04:35:55.759Z,13.9
2023-05-17T04:37:35.522Z,14.05
2023-05-17T04:39:15.287Z,14.18
2023-05-17T04:40:55.039Z,14.28
2023-05-17T04:42:34.825Z,14.33
2023-05-17T04:44:14.666Z,14.38
2023-05-17T04:45:54.342Z,14.33
2023-05-17T04:47:34.097Z,14.3
2023-05-17T04:49:13.874Z,14.24
2023-05-17T04:50:53.652Z,14.26
2023-05-17T04:52:33.393Z,14.23
2023-05-17T04:54:13.156Z,14.25
2023-05-17T04:55:52.950Z,14.24
2023-05-17T04:57:32.765Z,14.25
2023-05-17T04:59:12.449Z,14.34
2023-05-17T05:00:52.244Z,14.32
2023-05-17T05:02:32.011Z,14.38
2023-05-17T05:04:11.757Z,14.43
2023-05-17T05:05:51.538Z,14.46
2023-05-17T05:07:31.268Z,14.37
2023-05-17T05:09:11.124Z,14.36
2023-05-17T05:10:50.803Z,14.46
2023-05-17T05:12:30.554Z,14.33
2023-05-17T05:14:10.327Z,14.27
2023-05-17T05:15:50.117Z,14.21
2023-05-17T05:17:29.845Z,14.25
2023-05-17T05:19:09.610Z,14.18
2023-05-17T05:20:49.392Z,14.18
2023-05-17T05:22:29.135Z,14.15
2023-05-17T05:24:08.937Z,14.16
2023-05-17T05:25:48.708Z,14.18
2023-05-17T05:27:28.437Z,14.23
2023-05-17T05:29:08.250Z,14.21
2023-05-17T05:30:47.984Z,14.74
2023-05-17T05:32:27.723Z,14.7
2023-05-17T05:34:07.533Z,14.73
2023-05-17T05:35:47.249Z,14.72
2023-05-17T05:37:27.016Z,14.73
2023-05-17T05:39:06.867Z,14.76
2023-05-17T05:40:46.544Z,14.79
2023-05-17T05:42:26.326Z,14.76
2023-05-17T05:44:06.098Z,14.69
2023-05-17T05:45:45.850Z,14.74
2023-05-17T05:47:25.591Z,14.72
2023-05-17T05:49:05.370Z,14.74
2023-05-17T05:50:45.125Z,14.73
2023-05-17T05:52:24.911Z,14.77
2023-05-17T05:54:04.645Z,14.74
2023-05-17T05:55:44.459Z,14.7
2023-05-17T05:57:24.192Z,14.7
2023-05-17T05:59:03.990Z,14.73
2023-05-17T06:00:43.754Z,14.69
2023-05-17T06:02:23.480Z,14.65
2023-05-17T06:04:03.380Z,14.66
2023-05-17T06:05:43.019Z,14.64
2023-05-17T06:07:22.820Z,14.62
2023-05-17T06:09:02.533Z,14.71
2023-05-17T06:10:42.351Z,14.74
2023-05-17T06:12:22.095Z,14.62
2023-05-17T06:14:01.834Z,14.62
2023-05-17T06:15:41.588Z,14.61
2023-05-17T06:17:21.414Z,14.67
2023-05-17T06:19:01.117Z,14.67
2023-05-17T06:20:40.946Z,14.65
2023-05-17T06:22:20.643Z,14.62
2023-05-17T06:24:00.416Z,14.72
2023-05-17T06:25:40.184Z,14.62
2023-05-17T06:27:19.946Z,14.61
2023-05-17T06:28:59.704Z,14.69
2023-05-17T06:30:39.469Z,14.67
2023-05-17T06:32:19.224Z,14.69
2023-05-17T06:33:59.043Z,14.71
2023-05-17T06:35:38.761Z,14.63
2023-05-17T06:37:18.520Z,14.62
2023-05-17T06:38:58.319Z,14.64
2023-05-17T06:40:38.051Z,14.59
2023-05-17T06:42:17.813Z,14.72
2023-05-17T06:43:57.569Z,14.73
2023-05-17T06:45:37.493Z,14.72
2023-05-17T06:47:17.102Z,14.61
2023-05-17T06:48:56.864Z,14.75
2023-05-17T06:50:36.692Z,14.66
2023-05-17T06:52:16.405Z,14.63
2023-05-17T06:53:56.293Z,14.7
2023-05-17T06:55:35.952Z,14.74
2023-05-17T06:57:15.685Z,14.59
2023-05-17T06:58:55.475Z,14.69
2023-05-17T07:00:35.200Z,14.69
2023-05-17T07:02:14.975Z,14.7
2023-05-17T07:03:54.794Z,14.68
2023-05-17T07:05:34.552Z,14.81
2023-05-17T07:07:14.326Z,14.65
2023-05-17T07:08:54.114Z,14.67
2023-05-17T07:10:33.838Z,14.71
2023-05-17T07:12:13.655Z,14.7
2023-05-17T07:13:53.320Z,14.7
2023-05-17T07:15:33.132Z,14.67
2023-05-17T07:17:12.861Z,14.68
2023-05-17T07:18:52.617Z,14.7
2023-05-17T07:20:32.367Z,14.7
2023-05-17T07:22:12.166Z,14.68
2023-05-17T07:23:51.917Z,14.7
2023-05-17T07:25:31.765Z,14.68
2023-05-17T07:27:11.439Z,14.69
2023-05-17T07:28:51.220Z,14.7
2023-05-17T07:30:30.960Z,14.27
2023-05-17T07:32:10.777Z,14.14
2023-05-17T07:33:50.492Z,14.03
2023-05-17T07:35:30.247Z,13.97
2023-05-17T07:37:10.105Z,13.99
2023-05-17T07:38:49.773Z,14.04
2023-05-17T07:40:29.546Z,14.07
2023-05-17T07:42:09.318Z,14.09
2023-05-17T07:43:49.082Z,14.12
2023-05-17T07:45:28.932Z,14.13
2023-05-17T07:47:08.669Z,14.11
2023-05-17T07:48:48.378Z,14.13
2023-05-17T07:50:28.190Z,14.12
2023-05-17T07:52:07.953Z,14.1
2023-05-17T07:53:47.670Z,14.1
2023-05-17T07:55:27.499Z,14.09
2023-05-17T07:57:07.334Z,14.05
2023-05-17T07:58:47.055Z,14.07
2023-05-17T08:00:26.720Z,14.06
2023-05-17T08:02:06.490Z,14.04
2023-05-17T08:03:46.366Z,14.06
2023-05-17T08:05:25.994Z,14.03
2023-05-17T08:07:05.759Z,14.05
2023-05-17T08:08:45.531Z,14.07
2023-05-17T08:10:25.315Z,14.08
2023-05-17T08:12:05.091Z,14.07
2023-05-17T08:13:44.927Z,14.08
2023-05-17T08:15:24.684Z,14.08
2023-05-17T08:17:04.449Z,14.09
2023-05-17T08:18:44.157Z,14.08
2023-05-17T08:20:23.894Z,14.08
2023-05-17T08:22:03.671Z,14.08
2023-05-17T08:23:43.525Z,14.09
2023-05-17T08:25:23.173Z,14.06
2023-05-17T08:27:02.952Z,14.09
2023-05-17T08:28:42.764Z,14.1
2023-05-17T08:30:22.525Z,14.1
2023-05-17T08:32:02.379Z,14.1
2023-05-17T08:33:42.075Z,14.11
2023-05-17T08:35:21.868Z,14.11
2023-05-17T08:37:01.683Z,14.1
2023-05-17T08:38:41.294Z,14.09
2023-05-17T08:40:21.168Z,14.09
2023-05-17T08:42:00.821Z,14.08
2023-05-17T08:43:40.707Z,14.08
2023-05-17T08:45:20.333Z,14.07
2023-05-17T08:47:00.306Z,14.06
2023-05-17T08:48:40.045Z,14.08
2023-05-17T08:50:19.729Z,14.07
2023-05-17T08:51:59.502Z,14.08
2023-05-17T08:53:39.208Z,14.09
2023-05-17T08:55:19.042Z,14.1
2023-05-17T08:56:58.677Z,14.09
2023-05-17T08:58:38.537Z,14.09
2023-05-17T09:00:18.218Z,14.09
2023-05-17T09:01:58.055Z,14.1
2023-05-17T09:03:37.736Z,14.08
2023-05-17T09:05:17.521Z,14.08
2023-05-17T09:06:57.464Z,14.08
2023-05-17T09:08:37.037Z,14.08
2023-05-17T09:10:16.795Z,14.08
2023-05-17T09:11:56.637Z,14.08
2023-05-17T09:13:36.330Z,14.08
2023-05-17T09:15:16.133Z,14.09
2023-05-17T09:16:55.858Z,14.09
2023-05-17T09:18:35.666Z,14.05
2023-05-17T09:20:15.369Z,14.04
2023-05-17T09:21:55.166Z,14.05
2023-05-17T09:23:34.899Z,14.06
2023-05-17T09:25:14.678Z,14.02
2023-05-17T09:26:54.628Z,14.03
2023-05-17T09:28:34.347Z,14.03
2023-05-17T09:30:14.084Z,14.02
2023-05-17T09:31:53.744Z,14.04
2023-05-17T09:33:33.697Z,14.03
2023-05-17T09:35:13.398Z,14.02
2023-05-17T09:36:53.212Z,14.02
2023-05-17T09:38:32.793Z,14.01
2023-05-17T09:40:12.629Z,14.02
2023-05-17T09:41:52.508Z,14.02
2023-05-17T09:43:32.127Z,14.02
2023-05-17T09:45:11.981Z,14.02
2023-05-17T09:46:51.832Z,14
2023-05-17T09:48:31.426Z,14.02
2023-05-17T09:50:11.281Z,14.01
2023-05-17T09:51:50.882Z,14.01
2023-05-17T09:53:30.824Z,14.02
2023-05-17T09:55:10.572Z,14.02
2023-05-17T09:56:50.427Z,14.02
2023-05-17T09:58:30.100Z,14
2023-05-17T10:00:09.742Z,14.02
2023-05-17T10:01:49.587Z,13.99
2023-05-17T10:03:29.234Z,13.99
2023-05-17T10:05:09.146Z,14.02
2023-05-17T10:06:48.829Z,14.01
2023-05-17T10:08:28.627Z,14.02
2023-05-17T10:10:08.480Z,14.04
2023-05-17T10:11:48.114Z,14.03
2023-05-17T10:13:27.976Z,14.02
2023-05-17T10:15:07.619Z,14
2023-05-17T10:16:47.401Z,14
2023-05-17T10:18:27.318Z,14.03
2023-05-17T10:20:06.962Z,14.03
2023-05-17T10:21:46.684Z,14.03
2023-05-17T10:23:26.497Z,14.01
2023-05-17T10:25:06.302Z,14.04
2023-05-17T10:26:45.990Z,14.03
2023-05-17T10:28:25.720Z,14.02
2023-05-17T10:30:05.488Z,14.05
2023-05-17T10:31:45.238Z,14.05
2023-05-17T10:33:25.199Z,14.02
2023-05-17T10:35:04.802Z,14.04
2023-05-17T10:36:44.526Z,13.99
2023-05-17T10:38:24.459Z,13.99
2023-05-17T10:40:04.174Z,13.97
2023-05-17T10:41:44.028Z,13.95
2023-05-17T10:43:23.591Z,13.93
2023-05-17T10:45:03.368Z,13.92
2023-05-17T10:46:43.196Z,13.96
2023-05-17T10:48:22.863Z,13.97
2023-05-17T10:50:02.736Z,13.98
2023-05-17T10:51:42.479Z,13.98
2023-05-17T10:53:22.231Z,13.99
2023-05-17T10:55:02.023Z,13.98
2023-05-17T10:56:41.687Z,13.99
2023-05-17T10:58:21.679Z,13.99
2023-05-17T11:00:01.236Z,13.95
2023-05-17T11:01:40.986Z,13.98
2023-05-17T11:03:20.855Z,13.97
2023-05-17T11:05:00.657Z,13.95
2023-05-17T11:06:40.276Z,13.94
2023-05-17T11:08:20.035Z,13.97
2023-05-17T11:09:59.812Z,13.96
2023-05-17T11:11:39.690Z,13.95
2023-05-17T11:13:19.321Z,13.97
2023-05-17T11:16:38.965Z,14
2023-05-17T11:18:18.632Z,14
2023-05-17T11:19:58.462Z,13.99
2023-05-17T11:21:38.200Z,13.97
2023-05-17T11:23:17.900Z,13.97
2023-05-17T11:24:57.747Z,13.96
2023-05-17T11:26:37.587Z,13.97
2023-05-17T11:28:17.303Z,13.98
2023-05-17T11:29:56.978Z,13.99
2023-05-17T11:31:36.917Z,13.99
2023-05-17T11:33:16.511Z,14
2023-05-17T11:34:56.415Z,13.99
2023-05-17T11:36:36.099Z,13.99
2023-05-17T11:38:15.804Z,13.98
2023-05-17T11:39:55.585Z,13.99
2023-05-17T11:41:35.329Z,13.96
2023-05-17T11:43:15.083Z,13.96
2023-05-17T11:44:54.827Z,13.95
2023-05-17T11:46:34.604Z,13.97
2023-05-17T11:48:14.435Z,14.01
2023-05-17T11:49:54.128Z,13.99
2023-05-17T11:51:33.900Z,13.98
2023-05-17T11:53:13.693Z,13.97
2023-05-17T11:54:53.462Z,13.94
2023-05-17T11:56:33.191Z,13.92
2023-05-17T11:58:12.956Z,13.89
2023-05-17T11:59:52.877Z,13.9
2023-05-17T12:01:32.493Z,13.95
2023-05-17T12:03:12.252Z,13.99
2023-05-17T12:04:52.010Z,13.97
2023-05-17T12:06:31.784Z,13.93
2023-05-17T12:08:11.544Z,13.92
2023-05-17T12:09:51.532Z,13.9
2023-05-17T12:11:31.078Z,13.92
2023-05-17T12:13:10.818Z,13.92
2023-05-17T12:14:50.608Z,13.94
2023-05-17T12:16:30.365Z,13.96
2023-05-17T12:18:10.136Z,13.97
2023-05-17T12:19:49.910Z,13.99
2023-05-17T12:21:29.691Z,13.87
2023-05-17T12:23:09.424Z,14
2023-05-17T12:24:49.275Z,13.88
2023-05-17T12:26:28.955Z,13.9
2023-05-17T12:28:08.719Z,13.99
2023-05-17T12:29:48.486Z,13.89
2023-05-17T12:31:28.251Z,13.89
2023-05-17T12:33:08.038Z,13.99
2023-05-17T12:34:47.768Z,13.93
2023-05-17T12:36:27.528Z,13.92
2023-05-17T12:38:07.302Z,14.03
2023-05-17T12:39:47.081Z,13.89
2023-05-17T12:41:26.821Z,13.89
2023-05-17T12:43:06.599Z,13.91
2023-05-17T12:44:46.353Z,13.96
2023-05-17T12:46:26.136Z,13.88
2023-05-17T12:48:05.895Z,14.01
2023-05-17T12:49:45.618Z,13.89
2023-05-17T12:51:25.425Z,14.03
2023-05-17T12:53:05.163Z,13.88
2023-05-17T12:54:44.919Z,13.97
2023-05-17T12:56:24.758Z,13.93
2023-05-17T12:58:04.513Z,14.02
2023-05-17T12:59:44.304Z,14.01
2023-05-17T13:01:24.007Z,13.89
2023-05-17T13:03:03.756Z,13.9
2023-05-17T13:04:43.776Z,13.94
2023-05-17T13:06:23.295Z,13.9
2023-05-17T13:08:03.163Z,13.87
2023-05-17T13:09:43.013Z,13.85
2023-05-17T13:11:22.567Z,13.91
2023-05-17T13:13:02.473Z,13.99
2023-05-17T13:14:42.152Z,13.86
2023-05-17T13:16:21.912Z,13.94
2023-05-17T13:18:01.659Z,13.88
2023-05-17T13:19:41.454Z,14
2023-05-17T13:21:21.253Z,13.89
2023-05-17T13:23:00.929Z,14.03
2023-05-17T13:24:40.776Z,13.99
2023-05-17T13:26:20.459Z,13.85
2023-05-17T13:28:00.227Z,13.88
2023-05-17T13:29:40.325Z,13.98
2023-05-17T13:31:19.915Z,13.88
2023-05-17T13:32:59.679Z,13.95
2023-05-17T13:34:39.498Z,13.98
2023-05-17T13:36:19.179Z,13.96
2023-05-17T13:37:58.787Z,14.01
2023-05-17T13:39:38.606Z,13.95
2023-05-17T13:41:18.344Z,13.91
2023-05-17T13:42:58.105Z,13.94
2023-05-17T13:44:37.866Z,13.85
2023-05-17T13:46:17.788Z,14.02
2023-05-17T13:47:57.466Z,13.96
2023-05-17T13:49:37.186Z,14.04
2023-05-17T13:51:16.929Z,13.98
2023-05-17T13:52:56.665Z,13.95
2023-05-17T13:54:36.457Z,13.93
2023-05-17T13:56:16.272Z,14.02
2023-05-17T13:57:56.008Z,13.98
2023-05-17T13:59:35.740Z,13.84
2023-05-17T14:01:15.548Z,13.92
2023-05-17T14:02:55.329Z,13.85
2023-05-17T14:04:35.222Z,13.97
2023-05-17T14:06:14.790Z,13.84
2023-05-17T14:07:54.546Z,14.02
2023-05-17T14:09:34.320Z,13.91
2023-05-17T14:11:14.095Z,14
2023-05-17T14:12:53.875Z,13.91
2023-05-17T14:14:33.654Z,13.87
2023-05-17T14:16:13.372Z,13.85
2023-05-17T14:17:53.132Z,13.93
2023-05-17T14:19:32.914Z,13.88
2023-05-17T14:21:12.694Z,13.93
2023-05-17T14:22:52.438Z,13.84
2023-05-17T14:24:32.264Z,13.99
2023-05-17T14:26:11.967Z,13.87
2023-05-17T14:27:51.705Z,13.86
2023-05-17T14:29:31.480Z,13.94
2023-05-17T14:31:11.325Z,13.84
2023-05-17T14:32:51.017Z,13.95
2023-05-17T14:34:30.950Z,13.85
2023-05-17T14:36:10.647Z,14.02
2023-05-17T14:37:50.329Z,13.85
2023-05-17T14:39:30.263Z,13.83
2023-05-17T14:41:09.836Z,13.82
2023-05-17T14:42:49.610Z,13.95
2023-05-17T14:44:29.404Z,14.01
2023-05-17T14:46:09.173Z,13.91
2023-05-17T14:47:48.895Z,13.93
2023-05-17T14:49:28.653Z,13.93
2023-05-17T14:51:08.529Z,13.93
2023-05-17T14:52:48.280Z,14.01
2023-05-17T14:54:27.936Z,13.83
2023-05-17T14:56:07.906Z,13.98
2023-05-17T14:57:47.542Z,13.91
2023-05-17T14:59:27.240Z,14.02
2023-05-17T15:01:07.130Z,13.85
2023-05-17T15:02:46.762Z,13.94
2023-05-17T15:04:26.728Z,13.84
2023-05-17T15:06:06.291Z,13.86
2023-05-17T15:07:46.075Z,14.02
2023-05-17T15:09:25.822Z,13.89
2023-05-17T15:11:05.740Z,13.96
2023-05-17T15:12:45.383Z,13.97
2023-05-17T15:14:25.104Z,13.9
2023-05-17T15:16:04.877Z,13.99
2023-05-17T15:17:44.635Z,13.84
2023-05-17T15:19:24.518Z,13.97
2023-05-17T15:21:04.270Z,13.92
2023-05-17T15:22:43.947Z,14.02
2023-05-17T15:24:23.692Z,13.95
2023-05-17T15:26:03.487Z,13.99
2023-05-17T15:27:43.233Z,13.94
2023-05-17T15:29:23.001Z,13.96
2023-05-17T15:31:02.772Z,13.87
2023-05-17T15:32:42.576Z,13.97
2023-05-17T15:34:22.280Z,13.93
2023-05-17T15:36:02.064Z,14.02
2023-05-17T15:37:41.878Z,13.92
2023-05-17T15:39:21.567Z,14.03
2023-05-17T15:41:01.342Z,13.95
2023-05-17T15:42:41.107Z,13.97
2023-05-17T15:44:20.901Z,13.9
2023-05-17T15:46:00.619Z,13.95
2023-05-17T15:47:40.394Z,14.01
2023-05-17T15:49:20.155Z,13.91
2023-05-17T15:50:59.938Z,14.04
2023-05-17T15:52:39.678Z,14.02
2023-05-17T15:54:19.452Z,14.04
2023-05-17T15:55:59.274Z,14
2023-05-17T15:57:38.978Z,13.94
2023-05-17T15:59:18.746Z,13.94
2023-05-17T16:00:58.543Z,14.03
2023-05-17T16:02:38.277Z,14.03
2023-05-17T16:04:18.102Z,14.04
2023-05-17T16:05:57.804Z,13.98
2023-05-17T16:07:37.566Z,14.03
2023-05-17T16:09:17.356Z,13.95
2023-05-17T16:10:57.125Z,14
2023-05-17T16:12:36.973Z,13.96
2023-05-17T16:14:16.628Z,13.87
2023-05-17T16:15:56.373Z,14.05
2023-05-17T16:17:36.150Z,13.92
2023-05-17T16:19:15.912Z,13.89
2023-05-17T16:20:55.717Z,14.02
2023-05-17T16:22:35.438Z,14.03
2023-05-17T16:24:15.215Z,13.97
2023-05-17T16:25:54.973Z,13.91
2023-05-17T16:27:34.726Z,13.99
2023-05-17T16:29:14.511Z,13.87
2023-05-17T16:30:54.270Z,14
2023-05-17T16:32:34.030Z,14.03
2023-05-17T16:34:13.788Z,13.88
2023-05-17T16:35:53.550Z,14.08
2023-05-17T16:37:33.320Z,13.98
2023-05-17T16:39:13.083Z,13.92
2023-05-17T16:40:52.843Z,14
2023-05-17T16:42:32.606Z,14.02
2023-05-17T16:44:12.381Z,13.98
2023-05-17T16:45:52.131Z,14.01
2023-05-17T16:47:31.927Z,14.05
2023-05-17T16:49:11.709Z,13.93
2023-05-17T16:50:51.462Z,13.91
2023-05-17T16:52:31.195Z,13.99
2023-05-17T16:54:10.953Z,13.94
2023-05-17T16:55:50.729Z,13.97
2023-05-17T16:57:30.498Z,14.06
2023-05-17T16:59:10.241Z,13.88
2023-05-17T17:00:50.040Z,14.06
2023-05-17T17:02:29.788Z,13.92
2023-05-17T17:04:09.565Z,14.02
2023-05-17T17:05:49.306Z,13.9
2023-05-17T17:07:29.076Z,14
2023-05-17T17:09:08.839Z,13.89
2023-05-17T17:10:48.597Z,14.05
2023-05-17T17:12:28.352Z,14.04
2023-05-17T17:14:08.165Z,14.03
2023-05-17T17:15:47.884Z,14.02
2023-05-17T17:17:27.645Z,13.9
2023-05-17T17:19:07.401Z,14.04
2023-05-17T17:20:47.176Z,14.03
2023-05-17T17:22:26.944Z,13.89
2023-05-17T17:24:06.705Z,13.94
2023-05-17T17:25:46.477Z,14.04
2023-05-17T17:27:26.281Z,14.01
2023-05-17T17:29:06.021Z,14.04
2023-05-17T17:30:45.760Z,13.96
2023-05-17T17:32:25.533Z,14.06
2023-05-17T17:34:05.310Z,14.05
2023-05-17T17:35:45.057Z,14.06
2023-05-17T17:37:24.815Z,14.02
2023-05-17T17:39:04.578Z,14.05
2023-05-17T17:40:44.344Z,14.02
2023-05-17T17:42:24.123Z,13.92
2023-05-17T17:44:03.874Z,13.92
2023-05-17T17:45:43.648Z,13.93
2023-05-17T17:47:23.421Z,13.92
2023-05-17T17:49:03.183Z,13.91
2023-05-17T17:50:42.940Z,13.91
2023-05-17T17:52:22.711Z,13.89
2023-05-17T17:54:02.460Z,13.88
2023-05-17T17:55:42.254Z,14.04
2023-05-17T17:57:21.995Z,13.9
2023-05-17T17:59:01.749Z,14.07
2023-05-17T18:00:41.557Z,14.05
2023-05-17T18:02:21.269Z,14.05
2023-05-17T18:04:01.034Z,13.92
2023-05-17T18:05:41.060Z,14.04
2023-05-17T18:07:20.566Z,14.04
2023-05-17T18:09:00.333Z,13.91
2023-05-17T18:10:40.094Z,14.05
2023-05-17T18:12:19.881Z,13.97
2023-05-17T18:13:59.624Z,14
2023-05-17T18:15:39.393Z,14.09
2023-05-17T18:17:19.150Z,14.04
2023-05-17T18:18:58.921Z,13.93
2023-05-17T18:20:38.677Z,14.07
2023-05-17T18:22:18.460Z,13.95
2023-05-17T18:23:58.215Z,14.08
2023-05-17T18:25:37.981Z,14.01
2023-05-17T18:27:17.725Z,14.05
2023-05-17T18:28:57.504Z,13.95
2023-05-17T18:30:37.261Z,14.01
2023-05-17T18:32:17.027Z,14.03
2023-05-17T18:33:56.799Z,14.09
2023-05-17T18:35:36.557Z,13.94
2023-05-17T18:37:16.328Z,14.06
2023-05-17T18:38:56.071Z,14
2023-05-17T18:40:35.850Z,14.09
2023-05-17T18:42:15.606Z,14.04
2023-05-17T18:43:55.377Z,13.9
2023-05-17T18:45:35.152Z,13.5
2023-05-17T18:47:14.897Z,13.4
2023-05-17T18:48:54.660Z,13.36
2023-05-17T18:50:34.449Z,13.32
2023-05-17T18:52:14.183Z,13.31
2023-05-17T18:53:53.956Z,13.29
2023-05-17T18:55:33.723Z,13.27
2023-05-17T18:57:13.495Z,13.22
2023-05-17T18:58:53.247Z,13.22
2023-05-17T19:00:33.014Z,13.19
2023-05-17T19:02:12.778Z,13.18
2023-05-17T19:03:52.541Z,13.15
2023-05-17T19:05:32.295Z,13.15
2023-05-17T19:07:12.077Z,13.14
2023-05-17T19:08:51.842Z,13.13
2023-05-17T19:10:31.600Z,13.1
2023-05-17T19:12:11.354Z,13.1
2023-05-17T19:13:51.121Z,13.1
2023-05-17T19:15:30.896Z,13.09
2023-05-17T19:17:10.653Z,13.09
2023-05-17T19:18:50.435Z,13.07
2023-05-17T19:20:30.229Z,13.07
2023-05-17T19:22:09.941Z,13.07
2023-05-17T19:23:49.756Z,13.07
2023-05-17T19:25:29.464Z,13.07
2023-05-17T19:27:09.259Z,13.06
2023-05-17T19:28:48.995Z,13.06
2023-05-17T19:30:28.792Z,13.06
2023-05-17T19:32:08.541Z,13.06
2023-05-17T19:33:48.291Z,13.05
2023-05-17T19:35:28.057Z,13.06
2023-05-17T19:37:07.805Z,13.04
2023-05-17T19:38:47.575Z,13.04
2023-05-17T19:40:27.364Z,13.04
2023-05-17T19:42:07.116Z,13.04
2023-05-17T19:43:46.884Z,13.04
2023-05-17T19:45:26.660Z,13.04
2023-05-17T19:47:06.410Z,13.04
2023-05-17T19:48:46.181Z,13.04
2023-05-17T19:50:25.931Z,13.04
2023-05-17T19:52:05.710Z,13.04
2023-05-17T19:53:45.462Z,13.04
2023-05-17T19:55:25.219Z,13.04
2023-05-17T19:57:05.006Z,13.04
2023-05-17T19:58:44.765Z,13.04
2023-05-17T20:00:24.584Z,13.04
2023-05-17T20:02:04.286Z,13.04
2023-05-17T20:03:44.046Z,13.04
2023-05-17T20:05:23.832Z,13.04
2023-05-17T20:07:03.563Z,13.03
2023-05-17T20:08:43.347Z,13.03
2023-05-17T20:10:23.110Z,13.03
2023-05-17T20:12:02.857Z,13.03
2023-05-17T20:13:42.621Z,13.03
2023-05-17T20:15:22.409Z,13.03
2023-05-17T20:17:02.155Z,13.03
2023-05-17T20:18:41.915Z,13.03
2023-05-17T20:20:21.670Z,13.03
2023-05-17T20:22:01.445Z,13.03
2023-05-17T20:23:41.209Z,13.03
2023-05-17T20:25:20.983Z,13.03
2023-05-17T20:27:00.749Z,13.03
2023-05-17T20:28:40.493Z,13.03
2023-05-17T20:30:20.286Z,13.03
2023-05-17T20:32:00.021Z,13.03
2023-05-17T20:33:39.784Z,13.03
2023-05-17T20:35:19.573Z,13.03
2023-05-17T20:36:59.368Z,13.03
2023-05-17T20:38:39.093Z,13.02
2023-05-17T20:40:18.854Z,13.02
2023-05-17T20:41:58.614Z,13.02
2023-05-17T20:43:38.366Z,13.03
2023-05-17T20:45:18.190Z,13.01
2023-05-17T20:46:57.920Z,13.02
2023-05-17T20:48:37.674Z,13.02
2023-05-17T20:50:17.425Z,13.02
2023-05-17T20:51:57.189Z,13.02
2023-05-17T20:53:36.958Z,13.02
2023-05-17T20:55:16.742Z,13.02
2023-05-17T20:56:56.500Z,13.02
2023-05-17T20:58:36.272Z,13.02
2023-05-17T21:00:16.004Z,13.02
2023-05-17T21:01:55.819Z,13.02
2023-05-17T21:03:35.663Z,13.02
2023-05-17T21:05:15.304Z,13
2023-05-17T21:06:55.083Z,13.02
2023-05-17T21:08:34.898Z,13.02
2023-05-17T21:10:14.639Z,13.02
2023-05-17T21:11:54.362Z,13
2023-05-17T21:13:34.293Z,13
2023-05-17T21:15:14.093Z,13
2023-05-17T21:16:53.783Z,13
2023-05-17T21:18:33.505Z,13.01
2023-05-17T21:20:13.305Z,13.01
2023-05-17T21:21:53.093Z,13.01
2023-05-17T21:23:32.888Z,13.01
2023-05-17T21:25:12.454Z,13.01
2023-05-17T21:26:52.419Z,13.01
2023-05-17T21:28:32.204Z,13.01
2023-05-17T21:30:11.867Z,13.01
2023-05-17T21:31:51.772Z,13.01
2023-05-17T21:33:31.478Z,13.01